createdAt,value
2022-11-23T00:05:29.910Z,0.97
2022-11-23T00:08:18.004Z,1.07
2022-11-23T00:11:06.032Z,1.13
2022-11-23T00:29:38.003Z,1.17
2022-11-23T00:35:08.547Z,0.90
2022-11-23T00:40:39.067Z,0.80
2022-11-23T00:43:26.943Z,0.90
2022-11-23T00:46:18.437Z,0.90
2022-11-23T00:51:55.612Z,1.00
2022-11-23T00:54:43.684Z,0.90
2022-11-23T00:57:32.856Z,1.00
2022-11-23T01:03:07.906Z,1.63
2022-11-23T01:05:56.171Z,1.10
2022-11-23T01:08:47.506Z,0.97
2022-11-23T01:14:18.147Z,1.00
2022-11-23T01:19:49.655Z,0.90
2022-11-23T01:25:26.080Z,1.13
2022-11-23T01:31:07.346Z,1.17
2022-11-23T01:36:57.886Z,0.83
2022-11-23T01:39:46.294Z,0.97
2022-11-23T01:45:40.094Z,0.90
2022-11-23T01:51:13.097Z,0.97
2022-11-23T01:56:46.994Z,0.80
2022-11-23T01:59:36.212Z,0.83
2022-11-23T02:02:24.400Z,0.83
2022-11-23T02:07:53.580Z,1.10
2022-11-23T02:10:42.068Z,1.00
2022-11-23T02:13:31.048Z,0.83
2022-11-23T02:16:20.829Z,1.03
2022-11-23T02:21:57.105Z,0.97
2022-11-23T02:27:33.394Z,1.03
2022-11-23T02:33:09.492Z,1.33
2022-11-23T02:38:46.783Z,1.07
2022-11-23T02:44:33.179Z,1.20
2022-11-23T02:47:22.436Z,0.83
2022-11-23T02:50:12.082Z,0.80
2022-11-23T02:55:42.440Z,1.00
2022-11-23T03:01:17.041Z,1.10
2022-11-23T03:06:54.999Z,1.20
2022-11-23T03:09:45.401Z,1.07
2022-11-23T03:18:20.429Z,1.60
2022-11-23T03:21:09.324Z,1.20
2022-11-23T03:26:39.276Z,1.20
2022-11-23T03:32:16.249Z,1.20
2022-11-23T03:37:52.027Z,1.40
2022-11-23T03:43:25.233Z,1.30
2022-11-23T03:48:55.366Z,1.13
2022-11-23T03:54:24.835Z,1.40
2022-11-23T03:59:59.119Z,1.07
2022-11-23T04:05:37.792Z,1.20
2022-11-23T04:08:26.118Z,1.30
2022-11-23T04:14:02.447Z,1.20
2022-11-23T04:19:36.992Z,1.10
2022-11-23T04:22:27.151Z,1.50
2022-11-23T04:25:15.531Z,1.53
2022-11-23T04:30:48.440Z,1.20
2022-11-23T04:36:18.082Z,1.47
2022-11-23T04:39:07.116Z,1.83
2022-11-23T04:41:55.500Z,1.67
2022-11-23T04:47:33.993Z,1.57
2022-11-23T04:50:23.886Z,1.40
2022-11-23T04:53:12.018Z,1.93
2022-11-23T04:56:03.946Z,1.53
2022-11-23T05:01:38.970Z,1.60
2022-11-23T05:07:13.382Z,1.50
2022-11-23T05:15:33.660Z,1.67
2022-11-23T05:21:06.891Z,1.57
2022-11-23T05:26:38.617Z,1.43
2022-11-23T05:29:29.385Z,1.80
2022-11-23T05:32:29.822Z,1.70
2022-11-23T05:35:18.277Z,1.53
2022-11-23T05:40:47.567Z,1.53
2022-11-23T05:43:38.223Z,1.47
2022-11-23T05:49:18.123Z,1.40
2022-11-23T05:57:40.723Z,1.50
2022-11-23T06:03:16.443Z,1.40
2022-11-23T06:11:32.442Z,1.60
2022-11-23T06:17:07.747Z,1.23
2022-11-23T06:22:35.796Z,1.40
2022-11-23T06:28:08.145Z,1.43
2022-11-23T06:33:34.073Z,1.30
2022-11-23T06:36:22.810Z,1.40
2022-11-23T06:39:11.335Z,1.20
2022-11-23T06:44:45.911Z,1.40
2022-11-23T06:50:16.939Z,1.40
2022-11-23T06:53:05.844Z,1.40
2022-11-23T06:55:57.323Z,1.37
2022-11-23T07:01:33.865Z,1.37
2022-11-23T07:04:22.315Z,1.50
2022-11-23T07:12:43.668Z,1.50
2022-11-23T07:18:21.685Z,1.40
2022-11-23T07:23:52.506Z,1.30
2022-11-23T07:32:45.462Z,2.00
2022-11-23T07:39:36.386Z,3.13
2022-11-23T07:45:59.549Z,3.33
2022-11-23T07:52:35.806Z,1.70
2022-11-23T07:59:12.116Z,1.47
2022-11-23T08:05:49.602Z,1.20
2022-11-23T08:11:48.300Z,1.50
2022-11-23T08:17:18.725Z,1.33
2022-11-23T08:20:08.728Z,1.20
2022-11-23T08:22:58.482Z,1.80
2022-11-23T08:28:28.203Z,1.40
2022-11-23T08:34:19.408Z,1.67
2022-11-23T08:39:58.480Z,1.80
2022-11-23T08:42:47.907Z,1.40
2022-11-23T08:45:36.234Z,1.47
2022-11-23T08:56:59.018Z,1.70
2022-11-23T09:00:00.850Z,1.27
2022-11-23T09:05:35.141Z,1.20
2022-11-23T09:13:52.038Z,1.40
2022-11-23T09:16:40.479Z,1.67
2022-11-23T09:19:29.371Z,1.30
2022-11-23T09:24:59.671Z,1.17
2022-11-23T09:27:48.306Z,2.30
2022-11-23T09:33:18.549Z,1.50
2022-11-23T09:38:57.222Z,1.47
2022-11-23T09:50:38.820Z,1.37
2022-11-23T09:56:16.786Z,1.30
2022-11-23T09:59:11.148Z,1.33
2022-11-23T10:04:49.428Z,1.13
2022-11-23T10:07:45.500Z,1.20
2022-11-23T10:13:35.362Z,1.10
2022-11-23T10:19:18.286Z,1.20
2022-11-23T10:24:55.941Z,1.00
2022-11-23T10:27:45.527Z,1.00
2022-11-23T10:33:25.206Z,1.23
2022-11-23T10:41:42.085Z,1.53
2022-11-23T10:47:37.886Z,1.37
2022-11-23T10:50:29.816Z,1.30
2022-11-23T10:56:13.389Z,1.07
2022-11-23T11:01:41.258Z,0.90
2022-11-23T11:04:29.943Z,1.00
2022-11-23T11:10:16.791Z,1.00
2022-11-23T11:13:07.335Z,1.10
2022-11-23T11:18:44.238Z,0.80
2022-11-23T11:21:38.756Z,1.00
2022-11-23T11:30:06.722Z,1.20
2022-11-23T11:38:32.475Z,1.53
2022-11-23T11:46:55.507Z,1.30
2022-11-23T11:52:36.614Z,1.40
2022-11-23T11:58:18.731Z,1.00
2022-11-23T12:01:09.999Z,1.10
2022-11-23T12:12:26.582Z,1.47
2022-11-23T12:18:39.016Z,1.10
2022-11-23T12:24:28.508Z,1.27
2022-11-23T12:30:22.979Z,1.00
2022-11-23T12:33:27.107Z,0.90
2022-11-23T12:36:31.360Z,0.73
2022-11-23T12:42:18.311Z,1.00
2022-11-23T12:50:46.891Z,0.83
2022-11-23T12:56:25.125Z,0.90
2022-11-23T13:02:05.118Z,0.90
2022-11-23T13:08:15.446Z,0.87
2022-11-23T13:14:04.885Z,0.67
2022-11-23T13:17:03.018Z,0.60
2022-11-23T13:22:54.954Z,0.60
2022-11-23T13:28:32.761Z,0.50
2022-11-23T13:31:24.656Z,0.53
2022-11-23T13:34:45.333Z,0.60
2022-11-23T13:43:07.709Z,0.63
2022-11-23T13:52:06.545Z,0.93
2022-11-23T13:55:20.555Z,0.80
2022-11-23T14:02:04.384Z,1.10
2022-11-23T14:07:36.056Z,0.80
2022-11-23T14:10:25.543Z,0.77
2022-11-23T14:16:50.859Z,1.00
2022-11-23T14:20:11.908Z,1.00
2022-11-23T14:23:23.929Z,1.03
2022-11-23T14:29:07.574Z,1.20
2022-11-23T14:35:17.773Z,0.93
2022-11-23T14:41:03.533Z,0.80
2022-11-23T14:46:35.934Z,1.40
2022-11-23T14:52:23.616Z,0.97
2022-11-23T15:00:43.369Z,1.10
2022-11-23T15:06:20.601Z,1.03
2022-11-23T15:12:10.810Z,1.60
2022-11-23T15:18:15.016Z,1.30
2022-11-23T15:21:05.920Z,1.07
2022-11-23T15:23:57.670Z,1.07
2022-11-23T15:29:38.050Z,1.20
2022-11-23T15:35:17.958Z,1.77
2022-11-23T15:41:03.257Z,1.63
2022-11-23T15:46:38.991Z,1.27
2022-11-23T15:52:18.723Z,1.60
2022-11-23T15:57:55.148Z,1.40
2022-11-23T16:03:37.023Z,1.20
2022-11-23T16:12:31.890Z,1.23
2022-11-23T16:21:21.102Z,1.33
2022-11-23T16:27:15.433Z,1.83
2022-11-23T16:32:48.835Z,1.90
2022-11-23T16:38:32.541Z,1.97
2022-11-23T16:44:18.066Z,2.10
2022-11-23T16:50:01.267Z,2.20
2022-11-23T16:55:30.893Z,2.00
2022-11-23T16:58:19.461Z,2.10
2022-11-23T17:03:47.389Z,1.93
2022-11-23T17:09:25.117Z,2.10
2022-11-23T17:15:15.537Z,1.90
2022-11-23T17:20:52.432Z,2.00
2022-11-23T17:26:34.833Z,1.60
2022-11-23T17:32:10.009Z,1.70
2022-11-23T17:37:58.791Z,1.67
2022-11-23T17:43:30.939Z,1.70
2022-11-23T17:46:21.168Z,1.57
2022-11-23T17:51:59.366Z,1.50
2022-11-23T18:00:37.564Z,1.83
2022-11-23T18:03:25.840Z,1.60
2022-11-23T18:06:15.933Z,1.47
2022-11-23T18:11:46.107Z,1.70
2022-11-23T18:14:34.514Z,1.70
2022-11-23T18:17:24.055Z,1.50
2022-11-23T18:22:59.587Z,1.90
2022-11-23T18:28:30.812Z,1.73
2022-11-23T18:31:23.473Z,1.80
2022-11-23T18:37:02.591Z,1.70
2022-11-23T18:45:24.722Z,1.20
2022-11-23T18:53:55.473Z,1.20
2022-11-23T18:59:57.472Z,1.43
2022-11-23T19:02:32.615Z,1.43
2022-11-23T19:05:21.405Z,1.30
2022-11-23T19:08:10.539Z,1.43
2022-11-23T19:11:08.204Z,1.50
2022-11-23T19:16:53.803Z,1.57
2022-11-23T19:22:28.187Z,1.50
2022-11-23T19:27:58.596Z,1.10
2022-11-23T19:33:37.600Z,1.40
2022-11-23T19:39:20.236Z,1.40
2022-11-23T19:45:08.265Z,1.97
2022-11-23T19:53:49.101Z,1.80
2022-11-23T20:02:36.364Z,2.00
2022-11-23T20:12:04.514Z,3.40
2022-11-23T20:17:35.613Z,1.73
2022-11-23T20:20:33.081Z,1.83
2022-11-23T20:23:41.007Z,1.83
2022-11-23T20:26:29.464Z,2.33
2022-11-23T20:32:10.456Z,1.10
2022-11-23T20:38:14.269Z,1.80
2022-11-23T20:41:26.670Z,1.30
2022-11-23T21:00:38.897Z,1.47
2022-11-23T21:09:13.305Z,1.20
2022-11-23T21:18:10.890Z,1.10
2022-11-23T21:24:50.340Z,1.50
2022-11-23T21:34:26.682Z,0.83
2022-11-23T21:42:47.757Z,0.90
2022-11-23T21:45:38.519Z,0.90
2022-11-23T21:48:27.146Z,0.70
2022-11-23T21:54:06.350Z,1.60
2022-11-23T21:59:39.767Z,1.60
2022-11-23T22:02:30.491Z,1.27
2022-11-23T22:05:18.813Z,1.03
2022-11-23T22:13:36.895Z,0.80
2022-11-23T22:24:36.141Z,0.80
2022-11-23T22:27:24.418Z,1.00
2022-11-23T22:32:57.943Z,0.77
2022-11-23T22:35:49.237Z,0.90
2022-11-23T22:41:21.274Z,0.80
2022-11-23T22:47:02.962Z,1.30
2022-11-23T22:55:21.424Z,1.00
2022-11-23T23:03:59.398Z,0.90
2022-11-23T23:06:50.971Z,0.93
2022-11-23T23:09:39.337Z,0.93
2022-11-23T23:15:14.737Z,0.80
2022-11-23T23:20:53.767Z,1.20
2022-11-23T23:23:45.123Z,1.00
2022-11-23T23:29:17.185Z,1.20
2022-11-23T23:34:49.614Z,1.03
2022-11-23T23:40:26.075Z,1.00
2022-11-23T23:43:14.315Z,0.90
2022-11-23T23:48:45.274Z,0.83
2022-11-23T23:51:35.036Z,1.00
2022-11-23T23:54:23.581Z,0.97
2022-11-23T23:59:53.636Z,1.20
